createdAt,value
2023-05-14T00:01:56.784Z,100781.45
2023-05-14T00:07:01.364Z,100778.81
2023-05-14T00:12:05.862Z,100772.59
2023-05-14T00:17:09.625Z,100769.44
2023-05-14T00:22:13.520Z,100767.47
2023-05-14T00:27:17.466Z,100759.94
2023-05-14T00:32:21.541Z,100759.48
2023-05-14T00:37:25.852Z,100759.12
2023-05-14T00:42:29.547Z,100754.60
2023-05-14T00:47:35.227Z,100754.77
2023-05-14T00:52:39.790Z,100758.09
2023-05-14T00:57:44.210Z,100760.39
2023-05-14T01:02:48.139Z,100755.91
2023-05-14T01:08:08.997Z,100748.90
2023-05-14T01:13:27.956Z,100750.29
2023-05-14T01:18:34.043Z,100741.80
2023-05-14T01:23:38.357Z,100740.46
2023-05-14T01:28:42.837Z,100738.89
2023-05-14T01:33:49.847Z,100739.21
2023-05-14T01:38:55.025Z,100741.22
2023-05-14T01:43:59.285Z,100744.59
2023-05-14T01:49:03.823Z,100740.63
2023-05-14T01:54:07.680Z,100735.65
2023-05-14T01:59:11.648Z,100733.95
2023-05-14T02:04:16.069Z,100726.93
2023-05-14T02:09:19.932Z,100724.58
2023-05-14T02:14:23.730Z,100721.77
2023-05-14T02:19:27.328Z,100722.54
2023-05-14T02:24:31.083Z,100722.64
2023-05-14T02:29:34.845Z,100728.17
2023-05-14T02:34:39.073Z,100730.08
2023-05-14T02:39:42.806Z,100724.15
2023-05-14T02:44:46.850Z,100725.23
2023-05-14T02:49:50.696Z,100716.47
2023-05-14T02:54:54.482Z,100713.23
2023-05-14T02:59:58.371Z,100708.95
2023-05-14T03:05:03.774Z,100707.13
2023-05-14T03:10:08.089Z,100703.88
2023-05-14T03:15:12.133Z,100704.98
2023-05-14T03:20:16.046Z,100704.92
2023-05-14T03:25:20.696Z,100707.27
2023-05-14T03:30:24.806Z,100714.08
2023-05-14T03:35:29.521Z,100721.59
2023-05-14T03:40:34.602Z,100719.91
2023-05-14T03:45:40.328Z,100715.54
2023-05-14T03:50:45.256Z,100714.73
2023-05-14T03:55:49.565Z,100708.20
2023-05-14T04:00:54.067Z,100709.34
2023-05-14T04:05:57.756Z,100704.39
2023-05-14T04:11:01.552Z,100704.02
2023-05-14T04:16:06.021Z,100698.84
2023-05-14T04:21:09.962Z,100696.58
2023-05-14T04:26:13.751Z,100696.42
2023-05-14T04:31:17.637Z,100702.44
2023-05-14T04:36:21.435Z,100703.27
2023-05-14T04:41:26.073Z,100694.76
2023-05-14T04:46:29.937Z,100692.20
2023-05-14T04:51:33.876Z,100689.16
2023-05-14T04:56:37.739Z,100687.55
2023-05-14T05:01:41.548Z,100678.23
2023-05-14T05:06:46.268Z,100682.87
2023-05-14T05:11:51.022Z,100681.04
2023-05-14T05:16:54.802Z,100675.60
2023-05-14T05:21:58.835Z,100672.66
2023-05-14T05:27:02.827Z,100668.15
2023-05-14T05:32:08.021Z,100667.73
2023-05-14T05:37:14.483Z,100659.18
2023-05-14T05:42:19.823Z,100656.66
2023-05-14T05:47:23.819Z,100656.57
2023-05-14T05:52:28.098Z,100657.28
2023-05-14T05:57:32.615Z,100659.67
2023-05-14T06:02:37.168Z,100657.37
2023-05-14T06:07:42.777Z,100654.36
2023-05-14T06:12:47.063Z,100657.29
2023-05-14T06:17:51.055Z,100651.06
2023-05-14T06:22:54.667Z,100649.20
2023-05-14T06:27:58.707Z,100643.88
2023-05-14T06:33:02.668Z,100647.40
2023-05-14T06:38:06.697Z,100648.79
2023-05-14T06:43:10.349Z,100646.73
2023-05-14T06:48:14.413Z,100646.92
2023-05-14T06:53:18.381Z,100644.36
2023-05-14T06:58:22.343Z,100634.13
2023-05-14T07:03:26.250Z,100621.95
2023-05-14T07:08:30.181Z,100620.27
2023-05-14T07:13:34.034Z,100608.13
2023-05-14T07:18:37.969Z,100603.88
2023-05-14T07:23:41.728Z,100602.90
2023-05-14T07:28:45.504Z,100597.02
2023-05-14T07:33:49.381Z,100597.15
2023-05-14T07:38:53.178Z,100592.66
2023-05-14T07:43:56.859Z,100588.56
2023-05-14T07:49:03.609Z,100590.15
2023-05-14T07:54:08.697Z,100591.41
2023-05-14T07:59:14.497Z,100584.27
2023-05-14T08:04:19.315Z,100575.95
2023-05-14T08:09:23.071Z,100575.95
2023-05-14T08:14:26.957Z,100571.50
2023-05-14T08:19:30.966Z,100569.46
2023-05-14T08:24:35.249Z,100565.05
2023-05-14T08:29:39.079Z,100553.15
2023-05-14T08:34:44.034Z,100550.79
2023-05-14T08:39:48.138Z,100552.06
2023-05-14T08:45:04.033Z,100543.00
2023-05-14T08:50:08.780Z,100544.50
2023-05-14T08:55:17.215Z,100536.41
2023-05-14T09:00:24.103Z,100536.88
2023-05-14T09:05:28.457Z,100525.64
2023-05-14T09:10:32.855Z,100521.55
2023-05-14T09:15:38.097Z,100518.52
2023-05-14T09:20:41.851Z,100518.20
2023-05-14T09:25:46.078Z,100514.10
2023-05-14T09:30:53.642Z,100503.58
2023-05-14T09:36:03.432Z,100500.54
2023-05-14T09:41:07.527Z,100495.62
2023-05-14T09:46:11.542Z,100489.73
2023-05-14T09:51:16.141Z,100476.19
2023-05-14T09:56:20.160Z,100473.13
2023-05-14T10:01:25.063Z,100466.15
2023-05-14T10:06:34.305Z,100463.05
2023-05-14T10:11:38.886Z,100457.23
2023-05-14T10:16:47.584Z,100450.96
2023-05-14T10:22:12.209Z,100449.15
2023-05-14T10:27:17.722Z,100448.56
2023-05-14T10:32:24.659Z,100443.19
2023-05-14T10:37:29.408Z,100434.85
2023-05-14T10:42:42.964Z,100428.27
2023-05-14T10:47:49.161Z,100412.80
2023-05-14T10:52:53.661Z,100411.29
2023-05-14T10:58:05.981Z,100408.98
2023-05-14T11:03:10.977Z,100411.30
2023-05-14T11:08:14.830Z,100401.85
2023-05-14T11:13:19.659Z,100389.63
2023-05-14T11:18:29.303Z,100387.98
2023-05-14T11:23:33.514Z,100384.75
2023-05-14T11:28:37.487Z,100377.41
2023-05-14T11:33:41.798Z,100370.09
2023-05-14T11:38:52.947Z,100368.29
2023-05-14T11:43:58.816Z,100363.43
2023-05-14T11:49:05.370Z,100360.88
2023-05-14T11:54:09.780Z,100359.00
2023-05-14T11:59:13.602Z,100350.05
2023-05-14T12:04:19.243Z,100345.30
2023-05-14T12:09:23.447Z,100341.80
2023-05-14T12:14:30.425Z,100333.56
2023-05-14T12:19:34.211Z,100333.17
2023-05-14T12:24:39.557Z,100330.01
2023-05-14T12:29:44.294Z,100325.42
2023-05-14T12:34:47.972Z,100326.48
2023-05-14T12:39:51.618Z,100317.89
2023-05-14T12:44:55.348Z,100318.39
2023-05-14T12:49:59.444Z,100312.41
2023-05-14T12:55:04.184Z,100304.44
2023-05-14T13:00:14.155Z,100308.19
2023-05-14T13:05:18.663Z,100299.77
2023-05-14T13:10:32.464Z,100295.62
2023-05-14T13:15:36.733Z,100288.55
2023-05-14T13:20:43.094Z,100274.81
2023-05-14T13:25:49.754Z,100273.92
2023-05-14T13:31:07.409Z,100271.15
2023-05-14T13:36:13.736Z,100267.14
2023-05-14T13:41:17.481Z,100261.69
2023-05-14T13:46:23.119Z,100260.42
2023-05-14T13:51:27.444Z,100256.90
2023-05-14T13:56:31.079Z,100254.01
2023-05-14T14:01:34.924Z,100248.20
2023-05-14T14:06:40.133Z,100246.51
2023-05-14T14:11:43.943Z,100248.13
2023-05-14T14:16:48.943Z,100240.70
2023-05-14T14:21:52.978Z,100241.90
2023-05-14T14:26:57.052Z,100239.75
2023-05-14T14:32:00.858Z,100237.13
2023-05-14T14:37:06.682Z,100235.77
2023-05-14T14:42:10.329Z,100233.55
2023-05-14T14:47:14.102Z,100232.46
2023-05-14T14:52:18.911Z,100230.10
2023-05-14T14:57:23.281Z,100231.42
2023-05-14T15:02:27.333Z,100222.84
2023-05-14T15:07:33.240Z,100216.86
2023-05-14T15:12:37.029Z,100212.70
2023-05-14T15:17:40.722Z,100210.30
2023-05-14T15:22:44.746Z,100202.05
2023-05-14T15:27:49.068Z,100199.08
2023-05-14T15:32:52.947Z,100191.02
2023-05-14T15:38:00.136Z,100186.16
2023-05-14T15:43:04.030Z,100186.36
2023-05-14T15:48:07.971Z,100181.25
2023-05-14T15:53:11.772Z,100166.64
2023-05-14T15:58:15.704Z,100160.30
2023-05-14T16:03:21.481Z,100163.66
2023-05-14T16:08:27.820Z,100163.52
2023-05-14T16:13:31.957Z,100161.70
2023-05-14T16:18:35.686Z,100157.82
2023-05-14T16:23:39.264Z,100155.83
2023-05-14T16:28:43.304Z,100148.91
2023-05-14T16:33:47.219Z,100141.11
2023-05-14T16:39:06.624Z,100140.92
2023-05-14T16:44:11.286Z,100134.98
2023-05-14T16:49:18.154Z,100135.91
2023-05-14T16:54:21.959Z,100139.50
2023-05-14T16:59:25.862Z,100141.65
2023-05-14T17:04:29.764Z,100147.69
2023-05-14T17:09:34.185Z,100145.55
2023-05-14T17:14:37.961Z,100142.08
2023-05-14T17:19:43.333Z,100142.27
2023-05-14T17:24:47.626Z,100139.77
2023-05-14T17:29:52.229Z,100141.30
2023-05-14T17:34:57.136Z,100134.58
2023-05-14T17:40:01.020Z,100130.80
2023-05-14T17:45:06.359Z,100133.13
2023-05-14T17:50:10.707Z,100125.42
2023-05-14T17:55:14.776Z,100127.02
2023-05-14T18:00:22.509Z,100130.14
2023-05-14T18:05:26.809Z,100127.34
2023-05-14T18:10:31.608Z,100129.46
2023-05-14T18:15:37.278Z,100125.92
2023-05-14T18:20:46.318Z,100119.74
2023-05-14T18:25:51.064Z,100118.52
2023-05-14T18:30:58.355Z,100114.05
2023-05-14T18:36:04.256Z,100109.45
2023-05-14T18:41:09.433Z,100103.51
2023-05-14T18:46:14.675Z,100106.59
2023-05-14T18:51:19.058Z,100110.05
2023-05-14T18:56:26.816Z,100110.61
2023-05-14T19:01:33.119Z,100109.36
2023-05-14T19:06:43.229Z,100106.20
2023-05-14T19:11:48.298Z,100101.17
2023-05-14T19:16:53.097Z,100103.66
2023-05-14T19:21:58.300Z,100104.41
2023-05-14T19:27:05.158Z,100096.96
2023-05-14T19:32:10.016Z,100083.48
2023-05-14T19:37:16.799Z,100082.48
2023-05-14T19:42:21.289Z,100084.05
2023-05-14T19:47:25.009Z,100085.37
2023-05-14T19:52:32.240Z,100098.66
2023-05-14T19:57:37.668Z,100089.63
2023-05-14T20:02:42.329Z,100061.92
2023-05-14T20:07:49.371Z,100053.67
2023-05-14T20:12:53.529Z,100044.66
2023-05-14T20:17:58.336Z,100038.44
2023-05-14T20:23:03.125Z,100035.84
2023-05-14T20:28:07.935Z,100031.95
2023-05-14T20:33:13.951Z,100029.30
2023-05-14T20:38:19.701Z,100052.69
2023-05-14T20:43:23.715Z,100065.36
2023-05-14T20:48:28.204Z,100044.02
2023-05-14T20:53:32.138Z,100022.64
2023-05-14T20:58:35.947Z,100012.35
2023-05-14T21:03:41.703Z,100012.73
2023-05-14T21:08:46.260Z,100016.48
2023-05-14T21:13:50.242Z,100012.19
2023-05-14T21:18:55.155Z,100000.95
2023-05-14T21:23:59.058Z,99997.59
2023-05-14T21:29:04.488Z,100018.34
2023-05-14T21:34:08.778Z,100053.05
2023-05-14T21:39:13.110Z,100055.02
2023-05-14T21:44:17.554Z,100056.83
2023-05-14T21:49:21.961Z,100051.23
2023-05-14T21:54:25.989Z,100040.17
2023-05-14T21:59:30.055Z,100032.17
2023-05-14T22:04:34.476Z,100025.27
2023-05-14T22:09:38.741Z,100011.47
2023-05-14T22:14:42.586Z,100004.25
2023-05-14T22:19:46.728Z,99999.55
2023-05-14T22:24:50.584Z,99991.63
2023-05-14T22:29:55.443Z,99982.05
2023-05-14T22:34:59.379Z,99968.08
2023-05-14T22:40:05.417Z,99954.41
2023-05-14T22:45:09.984Z,99950.27
2023-05-14T22:50:13.936Z,99946.28
2023-05-14T22:55:18.374Z,99938.60
2023-05-14T23:00:22.631Z,99933.64
2023-05-14T23:05:27.337Z,99926.44
2023-05-14T23:10:31.669Z,99924.16
2023-05-14T23:15:35.484Z,99919.64
2023-05-14T23:20:39.313Z,99907.59
2023-05-14T23:25:43.320Z,99903.84
2023-05-14T23:30:47.058Z,99899.44
2023-05-14T23:35:50.821Z,99890.98
2023-05-14T23:40:54.605Z,99883.87
2023-05-14T23:45:58.958Z,99877.95
2023-05-14T23:51:03.041Z,99872.58
2023-05-14T23:56:06.950Z,99858.35
